createdAt,value
2016-04-09T00:00:21.193Z,1007.15
2016-04-09T00:01:21.148Z,1007.15
2016-04-09T00:02:21.104Z,1007.15
2016-04-09T00:03:21.045Z,1007.19
2016-04-09T00:04:21.015Z,1007.19
2016-04-09T00:05:20.987Z,1007.16
2016-04-09T00:06:20.911Z,1007.18
2016-04-09T00:07:20.867Z,1007.18
2016-04-09T00:08:20.808Z,1007.16
2016-04-09T00:09:20.764Z,1007.16
2016-04-09T00:10:20.720Z,1007.15
2016-04-09T00:11:20.691Z,1007.18
2016-04-09T00:12:20.631Z,1007.13
2016-04-09T00:13:20.586Z,1007.18
2016-04-09T00:14:20.527Z,1007.13
2016-04-09T00:15:20.483Z,1007.16
2016-04-09T00:16:20.439Z,1007.15
2016-04-09T00:17:20.379Z,1007.1
2016-04-09T00:18:20.553Z,1007.12
2016-04-09T00:19:20.290Z,1007.09
2016-04-09T00:20:20.262Z,1007.12
2016-04-09T00:21:20.202Z,1007.11
2016-04-09T00:22:23.158Z,1007.15
2016-04-09T00:23:20.114Z,1007.13
2016-04-09T00:24:20.054Z,1007.1
2016-04-09T00:25:20.010Z,1007.12
2016-04-09T00:26:19.965Z,1007.14
2016-04-09T00:27:19.921Z,1007.17
2016-04-09T00:28:19.877Z,1007.13
2016-04-09T00:29:19.817Z,1007.13
2016-04-09T00:30:19.773Z,1007.13
2016-04-09T00:31:19.728Z,1007.11
2016-04-09T00:32:19.684Z,1007.09
2016-04-09T00:33:19.640Z,1007.07
2016-04-09T00:34:19.595Z,1007.09
2016-04-09T00:35:19.536Z,1007.09
2016-04-09T00:36:19.492Z,1007.07
2016-04-09T00:37:19.448Z,1007.06
2016-04-09T00:38:22.404Z,1007.05
2016-04-09T00:39:19.344Z,1007.09
2016-04-09T00:40:19.300Z,1007.06
2016-04-09T00:41:19.255Z,1007.07
2016-04-09T00:42:19.211Z,1007.06
2016-04-09T00:43:19.167Z,1007
2016-04-09T00:44:19.123Z,1006.97
2016-04-09T00:45:19.064Z,1006.99
2016-04-09T00:46:19.020Z,1007
2016-04-09T00:47:18.960Z,1006.96
2016-04-09T00:48:18.931Z,1006.99
2016-04-09T00:49:18.886Z,1006.96
2016-04-09T00:50:18.827Z,1006.95
2016-04-09T00:51:18.767Z,1006.96
2016-04-09T00:52:18.738Z,1006.94
2016-04-09T00:53:21.710Z,1006.94
2016-04-09T00:54:18.634Z,1006.95
2016-04-09T00:55:18.590Z,1006.91
2016-04-09T00:56:18.546Z,1006.91
2016-04-09T00:57:18.486Z,1006.86
2016-04-09T00:58:18.443Z,1006.85
2016-04-09T00:59:18.398Z,1006.82
2016-04-09T01:00:18.354Z,1006.86
2016-04-09T01:01:18.310Z,1006.86
2016-04-09T01:02:18.265Z,1006.82
2016-04-09T01:03:18.409Z,1006.84
2016-04-09T01:04:18.161Z,1006.76
2016-04-09T01:05:18.117Z,1006.79
2016-04-09T01:06:18.073Z,1006.77
2016-04-09T01:07:18.013Z,1006.81
2016-04-09T01:08:17.969Z,1006.77
2016-04-09T01:09:17.924Z,1006.8
2016-04-09T01:10:17.880Z,1006.79
2016-04-09T01:11:17.836Z,1006.78
2016-04-09T01:12:17.792Z,1006.8
2016-04-09T01:13:17.733Z,1006.81
2016-04-09T01:14:17.689Z,1006.79
2016-04-09T01:15:17.644Z,1006.8
2016-04-09T01:16:17.584Z,1006.81
2016-04-09T01:17:20.555Z,1006.79
2016-04-09T01:18:17.496Z,1006.74
2016-04-09T01:19:17.452Z,1006.73
2016-04-09T01:20:17.407Z,1006.73
2016-04-09T01:21:17.348Z,1006.7
2016-04-09T01:22:17.304Z,1006.7
2016-04-09T01:23:17.275Z,1006.71
2016-04-09T01:24:20.216Z,1006.7
2016-04-09T01:25:17.171Z,1006.7
2016-04-09T01:26:17.127Z,1006.71
2016-04-09T01:27:17.067Z,1006.71
2016-04-09T01:28:17.038Z,1006.72
2016-04-09T01:29:16.979Z,1006.7
2016-04-09T01:30:16.934Z,1006.73
2016-04-09T01:31:16.890Z,1006.71
2016-04-09T01:32:16.830Z,1006.71
2016-04-09T01:33:16.848Z,1006.73
2016-04-09T01:34:16.742Z,1006.71
2016-04-09T01:35:16.698Z,1006.76
2016-04-09T01:36:16.654Z,1006.73
2016-04-09T01:37:16.585Z,1006.79
2016-04-09T01:38:16.540Z,1006.78
2016-04-09T01:39:16.496Z,1006.75
2016-04-09T01:40:16.451Z,1006.73
2016-04-09T01:41:16.407Z,1006.75
2016-04-09T01:42:16.363Z,1006.71
2016-04-09T01:43:16.334Z,1006.75
2016-04-09T01:44:16.259Z,1006.77
2016-04-09T01:45:16.214Z,1006.75
2016-04-09T01:46:16.155Z,1006.74
2016-04-09T01:47:16.111Z,1006.72
2016-04-09T01:48:16.067Z,1006.71
2016-04-09T01:49:16.023Z,1006.69
2016-04-09T01:50:15.979Z,1006.68
2016-04-09T01:51:15.950Z,1006.67
2016-04-09T01:52:15.875Z,1006.68
2016-04-09T01:53:15.830Z,1006.67
2016-04-09T01:54:15.786Z,1006.69
2016-04-09T01:55:15.758Z,1006.65
2016-04-09T01:56:15.697Z,1006.61
2016-04-09T01:57:15.638Z,1006.59
2016-04-09T01:58:15.593Z,1006.56
2016-04-09T01:59:15.549Z,1006.53
2016-04-09T02:00:15.505Z,1006.53
2016-04-09T02:01:15.446Z,1006.5
2016-04-09T02:02:15.402Z,1006.53
2016-04-09T02:03:15.357Z,1006.5
2016-04-09T02:04:18.329Z,1006.5
2016-04-09T02:05:15.268Z,1006.48
2016-04-09T02:06:15.209Z,1006.53
2016-04-09T02:07:15.165Z,1006.56
2016-04-09T02:08:15.120Z,1006.56
2016-04-09T02:09:15.076Z,1006.6
2016-04-09T02:10:15.031Z,1006.53
2016-04-09T02:11:14.987Z,1006.56
2016-04-09T02:12:14.928Z,1006.56
2016-04-09T02:13:14.884Z,1006.61
2016-04-09T02:14:14.839Z,1006.65
2016-04-09T02:15:14.796Z,1006.63
2016-04-09T02:16:14.736Z,1006.6
2016-04-09T02:17:14.692Z,1006.67
2016-04-09T02:18:14.648Z,1006.67
2016-04-09T02:19:14.603Z,1006.68
2016-04-09T02:20:14.559Z,1006.69
2016-04-09T02:21:14.499Z,1006.68
2016-04-09T02:22:14.455Z,1006.68
2016-04-09T02:23:14.411Z,1006.59
2016-04-09T02:24:14.367Z,1006.61
2016-04-09T02:25:14.308Z,1006.58
2016-04-09T02:26:14.263Z,1006.6
2016-04-09T02:27:14.219Z,1006.61
2016-04-09T02:28:14.175Z,1006.6
2016-04-09T02:29:14.130Z,1006.57
2016-04-09T02:30:14.086Z,1006.57
2016-04-09T02:31:14.026Z,1006.6
2016-04-09T02:32:13.982Z,1006.59
2016-04-09T02:33:13.937Z,1006.58
2016-04-09T02:34:22.924Z,1006.61
2016-04-09T02:35:16.849Z,1006.59
2016-04-09T02:36:13.789Z,1006.55
2016-04-09T02:37:13.745Z,1006.57
2016-04-09T02:38:13.701Z,1006.54
2016-04-09T02:39:13.657Z,1006.51
2016-04-09T02:40:13.613Z,1006.52
2016-04-09T02:41:13.554Z,1006.52
2016-04-09T02:42:13.509Z,1006.5
2016-04-09T02:43:13.481Z,1006.5
2016-04-09T02:44:13.467Z,1006.49
2016-04-09T02:45:13.376Z,1006.53
2016-04-09T02:46:13.317Z,1006.52
2016-04-09T02:47:13.272Z,1006.54
2016-04-09T02:48:13.228Z,1006.55
2016-04-09T02:49:13.184Z,1006.56
2016-04-09T02:50:16.125Z,1006.51
2016-04-09T02:51:13.080Z,1006.55
2016-04-09T02:52:13.036Z,1006.51
2016-04-09T02:53:12.992Z,1006.46
2016-04-09T02:54:12.947Z,1006.51
2016-04-09T02:55:12.888Z,1006.49
2016-04-09T02:56:12.843Z,1006.48
2016-04-09T02:57:12.799Z,1006.43
2016-04-09T02:58:12.755Z,1006.44
2016-04-09T02:59:12.694Z,1006.44
2016-04-09T03:00:12.652Z,1006.43
2016-04-09T03:01:12.607Z,1006.4
2016-04-09T03:02:12.547Z,1006.41
2016-04-09T03:03:12.534Z,1006.36
2016-04-09T03:04:12.458Z,1006.38
2016-04-09T03:05:12.415Z,1006.39
2016-04-09T03:06:12.385Z,1006.39
2016-04-09T03:07:12.326Z,1006.39
2016-04-09T03:08:12.282Z,1006.42
2016-04-09T03:09:12.237Z,1006.39
2016-04-09T03:10:12.178Z,1006.38
2016-04-09T03:11:12.134Z,1006.4
2016-04-09T03:12:12.089Z,1006.39
2016-04-09T03:13:12.045Z,1006.34
2016-04-09T03:14:12.001Z,1006.36
2016-04-09T03:15:11.942Z,1006.36
2016-04-09T03:16:11.898Z,1006.39
2016-04-09T03:17:11.853Z,1006.34
2016-04-09T03:18:11.950Z,1006.37
2016-04-09T03:19:11.748Z,1006.35
2016-04-09T03:20:14.705Z,1006.33
2016-04-09T03:21:11.661Z,1006.29
2016-04-09T03:22:11.616Z,1006.31
2016-04-09T03:23:11.556Z,1006.34
2016-04-09T03:24:11.511Z,1006.33
2016-04-09T03:25:11.468Z,1006.32
2016-04-09T03:26:11.424Z,1006.32
2016-04-09T03:27:11.380Z,1006.34
2016-04-09T03:28:11.336Z,1006.31
2016-04-09T03:29:11.275Z,1006.38
2016-04-09T03:30:11.232Z,1006.34
2016-04-09T03:31:11.188Z,1006.34
2016-04-09T03:32:11.143Z,1006.38
2016-04-09T03:33:11.161Z,1006.35
2016-04-09T03:34:11.055Z,1006.34
2016-04-09T03:35:10.995Z,1006.34
2016-04-09T03:36:10.952Z,1006.37
2016-04-09T03:37:19.922Z,1006.34
2016-04-09T03:38:10.847Z,1006.34
2016-04-09T03:39:11.007Z,1006.37
2016-04-09T03:40:10.759Z,1006.33
2016-04-09T03:41:10.715Z,1006.35
2016-04-09T03:42:10.873Z,1006.41
2016-04-09T03:43:10.610Z,1006.36
2016-04-09T03:44:10.582Z,1006.38
2016-04-09T03:45:10.522Z,1006.34
2016-04-09T03:46:10.493Z,1006.36
2016-04-09T03:47:10.433Z,1006.38
2016-04-09T03:48:10.451Z,1006.39
2016-04-09T03:49:10.329Z,1006.38
2016-04-09T03:50:10.286Z,1006.38
2016-04-09T03:51:10.226Z,1006.35
2016-04-09T03:52:13.197Z,1006.34
2016-04-09T03:53:10.340Z,1006.33
2016-04-09T03:54:10.092Z,1006.37
2016-04-09T03:55:10.049Z,1006.32
2016-04-09T03:56:10.005Z,1006.35
2016-04-09T03:57:09.944Z,1006.34
2016-04-09T03:58:09.900Z,1006.31
2016-04-09T03:59:09.855Z,1006.34
2016-04-09T04:00:09.812Z,1006.32
2016-04-09T04:01:09.752Z,1006.34
2016-04-09T04:02:09.708Z,1006.31
2016-04-09T04:03:09.664Z,1006.32
2016-04-09T04:04:09.620Z,1006.27
2016-04-09T04:05:09.576Z,1006.28
2016-04-09T04:06:09.516Z,1006.33
2016-04-09T04:07:09.472Z,1006.31
2016-04-09T04:08:12.427Z,1006.32
2016-04-09T04:09:09.383Z,1006.3
2016-04-09T04:10:09.339Z,1006.3
2016-04-09T04:11:09.295Z,1006.27
2016-04-09T04:12:09.235Z,1006.3
2016-04-09T04:13:09.191Z,1006.3
2016-04-09T04:14:09.147Z,1006.31
2016-04-09T04:15:09.103Z,1006.34
2016-04-09T04:16:09.043Z,1006.35
2016-04-09T04:17:09.014Z,1006.29
2016-04-09T04:18:08.954Z,1006.28
2016-04-09T04:19:08.926Z,1006.26
2016-04-09T04:20:08.850Z,1006.24
2016-04-09T04:21:08.806Z,1006.26
2016-04-09T04:22:08.761Z,1006.28
2016-04-09T04:23:08.717Z,1006.27
2016-04-09T04:24:08.673Z,1006.29
2016-04-09T04:25:08.629Z,1006.25
2016-04-09T04:26:08.570Z,1006.26
2016-04-09T04:27:08.525Z,1006.27
2016-04-09T04:28:08.481Z,1006.26
2016-04-09T04:29:08.437Z,1006.24
2016-04-09T04:30:08.378Z,1006.24
2016-04-09T04:31:08.333Z,1006.22
2016-04-09T04:32:08.289Z,1006.2
2016-04-09T04:33:08.244Z,1006.18
2016-04-09T04:34:08.200Z,1006.19
2016-04-09T04:35:08.156Z,1006.17
2016-04-09T04:36:11.112Z,1006.2
2016-04-09T04:37:08.052Z,1006.22
2016-04-09T04:38:07.992Z,1006.22
2016-04-09T04:39:07.949Z,1006.23
2016-04-09T04:40:07.904Z,1006.21
2016-04-09T04:41:08.063Z,1006.2
2016-04-09T04:42:07.816Z,1006.22
2016-04-09T04:43:07.771Z,1006.18
2016-04-09T04:44:07.712Z,1006.2
2016-04-09T04:45:07.667Z,1006.19
2016-04-09T04:46:10.623Z,1006.19
2016-04-09T04:47:07.579Z,1006.17
2016-04-09T04:48:07.519Z,1006.2
2016-04-09T04:49:07.490Z,1006.18
2016-04-09T04:50:07.431Z,1006.15
2016-04-09T04:51:07.387Z,1006.16
2016-04-09T04:52:07.343Z,1006.16
2016-04-09T04:53:10.298Z,1006.17
2016-04-09T04:54:07.239Z,1006.17
2016-04-09T04:55:07.194Z,1006.23
2016-04-09T04:56:07.150Z,1006.22
2016-04-09T04:57:07.106Z,1006.17
2016-04-09T04:58:07.061Z,1006.17
2016-04-09T04:59:07.017Z,1006.16
2016-04-09T05:00:06.958Z,1006.18
2016-04-09T05:01:06.913Z,1006.18
2016-04-09T05:02:06.870Z,1006.17
2016-04-09T05:03:06.810Z,1006.17
2016-04-09T05:04:06.766Z,1006.17
2016-04-09T05:05:06.722Z,1006.15
2016-04-09T05:06:06.677Z,1006.15
2016-04-09T05:07:06.633Z,1006.15
2016-04-09T05:08:06.573Z,1006.15
2016-04-09T05:09:06.529Z,1006.08
2016-04-09T05:10:06.485Z,1006.1
2016-04-09T05:11:06.440Z,1006.13
2016-04-09T05:12:06.412Z,1006.1
2016-04-09T05:13:06.336Z,1006.14
2016-04-09T05:14:06.292Z,1006.12
2016-04-09T05:15:06.248Z,1006.15
2016-04-09T05:16:06.392Z,1006.13
2016-04-09T05:17:06.145Z,1006.12
2016-04-09T05:18:06.100Z,1006.09
2016-04-09T05:19:06.056Z,1006.06
2016-04-09T05:20:06.011Z,1006.12
2016-04-09T05:21:05.967Z,1006.07
2016-04-09T05:22:05.908Z,1006.1
2016-04-09T05:23:05.864Z,1006.11
2016-04-09T05:24:05.819Z,1006.14
2016-04-09T05:25:05.776Z,1006.14
2016-04-09T05:26:05.731Z,1006.12
2016-04-09T05:27:05.672Z,1006.11
2016-04-09T05:28:05.628Z,1006.13
2016-04-09T05:29:05.583Z,1006.14
2016-04-09T05:30:05.539Z,1006.08
2016-04-09T05:31:05.478Z,1006.1
2016-04-09T05:32:05.435Z,1006.11
2016-04-09T05:33:05.391Z,1006.09
2016-04-09T05:34:05.346Z,1006.09
2016-04-09T05:35:05.302Z,1006.14
2016-04-09T05:36:05.241Z,1006.12
2016-04-09T05:37:05.198Z,1006.1
2016-04-09T05:38:08.154Z,1006.13
2016-04-09T05:39:05.094Z,1006.12
2016-04-09T05:40:08.066Z,1006.12
2016-04-09T05:41:05.005Z,1006.1
2016-04-09T05:42:04.977Z,1006.12
2016-04-09T05:43:04.917Z,1006.09
2016-04-09T05:44:04.873Z,1006.11
2016-04-09T05:45:04.813Z,1006.06
2016-04-09T05:46:04.768Z,1006.08
2016-04-09T05:47:04.725Z,1006.1
2016-04-09T05:48:04.680Z,1006.09
2016-04-09T05:49:04.636Z,1006.09
2016-04-09T05:50:04.592Z,1006.1
2016-04-09T05:51:04.532Z,1006.07
2016-04-09T05:52:04.488Z,1006.09
2016-04-09T05:53:04.444Z,1006.1
2016-04-09T05:54:07.400Z,1006.14
2016-04-09T05:55:04.356Z,1006.12
2016-04-09T05:56:04.295Z,1006.13
2016-04-09T05:57:04.253Z,1006.11
2016-04-09T05:58:04.208Z,1006.12
2016-04-09T05:59:04.164Z,1006.12
2016-04-09T06:00:04.306Z,1006.14
2016-04-09T06:01:04.059Z,1006.17
2016-04-09T06:02:04.016Z,1006.13
2016-04-09T06:03:03.971Z,1006.12
2016-04-09T06:04:03.927Z,1006.12
2016-04-09T06:05:03.866Z,1006.11
2016-04-09T06:06:03.822Z,1006.09
2016-04-09T06:07:03.763Z,1006.11
2016-04-09T06:08:06.750Z,1006.11
2016-04-09T06:09:03.675Z,1006.15
2016-04-09T06:10:03.630Z,1006.13
2016-04-09T06:11:03.586Z,1006.14
2016-04-09T06:12:03.542Z,1006.13
2016-04-09T06:13:03.482Z,1006.13
2016-04-09T06:14:03.438Z,1006.15
2016-04-09T06:15:03.393Z,1006.11
2016-04-09T06:16:06.350Z,1006.17
2016-04-09T06:17:03.306Z,1006.15
2016-04-09T06:18:03.262Z,1006.12
2016-04-09T06:19:03.202Z,1006.13
2016-04-09T06:20:03.157Z,1006.12
2016-04-09T06:21:03.112Z,1006.12
2016-04-09T06:22:03.069Z,1006.09
2016-04-09T06:23:03.009Z,1006.09
2016-04-09T06:24:02.964Z,1006.08
2016-04-09T06:25:02.936Z,1006.06
2016-04-09T06:26:05.877Z,1006.04
2016-04-09T06:27:02.817Z,1006.06
2016-04-09T06:28:02.773Z,1006.04
2016-04-09T06:29:02.728Z,1006
2016-04-09T06:30:02.887Z,1006.03
2016-04-09T06:31:02.640Z,1006
2016-04-09T06:32:02.596Z,1005.97
2016-04-09T06:33:05.552Z,1005.97
2016-04-09T06:34:02.491Z,1005.99
2016-04-09T06:35:02.448Z,1006.03
2016-04-09T06:36:02.403Z,1006.02
2016-04-09T06:37:02.344Z,1006.02
2016-04-09T06:38:02.300Z,1006.08
2016-04-09T06:39:02.255Z,1006.06
2016-04-09T06:40:02.414Z,1006.09
2016-04-09T06:41:02.151Z,1006.09
2016-04-09T06:42:02.108Z,1006.07
2016-04-09T06:43:02.063Z,1006.04
2016-04-09T06:44:02.019Z,1006
2016-04-09T06:45:01.959Z,1006.04
2016-04-09T06:46:01.915Z,1006.02
2016-04-09T06:47:01.886Z,1006.01
2016-04-09T06:48:01.826Z,1005.99
2016-04-09T06:49:01.782Z,1005.98
2016-04-09T06:50:01.738Z,1006.02
2016-04-09T06:51:01.679Z,1005.96
2016-04-09T06:52:01.634Z,1006
2016-04-09T06:53:01.590Z,1005.95
2016-04-09T06:54:01.589Z,1005.96
2016-04-09T06:55:01.588Z,1005.91
2016-04-09T06:56:01.574Z,1005.91
2016-04-09T06:57:01.574Z,1005.88
2016-04-09T06:58:01.574Z,1005.89
2016-04-09T06:59:01.532Z,1005.88
2016-04-09T07:00:01.518Z,1005.87
2016-04-09T07:01:01.475Z,1005.91
2016-04-09T07:02:01.446Z,1005.91
2016-04-09T07:03:01.418Z,1005.91
2016-04-09T07:04:04.380Z,1005.92
2016-04-09T07:05:01.341Z,1005.95
2016-04-09T07:06:01.287Z,1005.95
2016-04-09T07:07:01.249Z,1005.95
2016-04-09T07:08:01.210Z,1005.98
2016-04-09T07:09:04.168Z,1005.95
2016-04-09T07:10:01.126Z,1005.97
2016-04-09T07:11:01.069Z,1006
2016-04-09T07:12:01.043Z,1005.97
2016-04-09T07:13:00.985Z,1006.01
2016-04-09T07:14:00.941Z,1006.05
2016-04-09T07:15:00.899Z,1006.05
2016-04-09T07:16:00.840Z,1006.02
2016-04-09T07:17:00.797Z,1006.04
2016-04-09T07:18:00.753Z,1006.06
2016-04-09T07:19:00.694Z,1006.06
2016-04-09T07:20:00.650Z,1006.08
2016-04-09T07:21:00.620Z,1006.05
2016-04-09T07:22:00.561Z,1006.08
2016-04-09T07:23:00.516Z,1006.08
2016-04-09T07:24:00.472Z,1006.13
2016-04-09T07:25:00.412Z,1006.13
2016-04-09T07:26:00.368Z,1006.1
2016-04-09T07:27:00.308Z,1006.09
2016-04-09T07:28:00.280Z,1006.16
2016-04-09T07:29:00.221Z,1006.07
2016-04-09T07:30:00.176Z,1006.16
2016-04-09T07:31:00.132Z,1006.12
2016-04-09T07:32:00.087Z,1006.13
2016-04-09T07:33:00.043Z,1006.13
2016-04-09T07:33:59.984Z,1006.1
2016-04-09T07:34:59.939Z,1006.12
2016-04-09T07:35:59.895Z,1006.1
2016-04-09T07:36:59.867Z,1006.11
2016-04-09T07:37:59.790Z,1006.08
2016-04-09T07:38:59.747Z,1006.09
2016-04-09T07:39:59.703Z,1006.09
2016-04-09T07:40:59.643Z,1006.09
2016-04-09T07:41:59.614Z,1006.09
2016-04-09T07:42:59.554Z,1006.07
2016-04-09T07:43:59.511Z,1006.06
2016-04-09T07:44:59.451Z,1006.06
2016-04-09T07:45:59.423Z,1006.1
2016-04-09T07:46:59.362Z,1006.13
2016-04-09T07:47:59.318Z,1006.15
2016-04-09T07:48:59.289Z,1006.12
2016-04-09T07:49:59.230Z,1006.15
2016-04-09T07:50:59.170Z,1006.09
2016-04-09T07:51:59.125Z,1006.11
2016-04-09T07:52:59.081Z,1006.14
2016-04-09T07:53:59.037Z,1006.15
2016-04-09T07:54:58.977Z,1006.1
2016-04-09T07:55:58.949Z,1006.1
2016-04-09T07:56:58.889Z,1006.1
2016-04-09T07:57:58.844Z,1006.1
2016-04-09T07:58:58.801Z,1006.09
2016-04-09T07:59:58.741Z,1006.12
2016-04-09T08:00:58.712Z,1006.09
2016-04-09T08:01:58.652Z,1006.05
2016-04-09T08:02:58.607Z,1006.07
2016-04-09T08:03:58.564Z,1006.07
2016-04-09T08:04:58.707Z,1006.05
2016-04-09T08:05:58.460Z,1006.05
2016-04-09T08:06:58.416Z,1006.06
2016-04-09T08:07:58.559Z,1006.02
2016-04-09T08:08:58.312Z,1006.07
2016-04-09T08:09:58.268Z,1006.07
2016-04-09T08:10:58.224Z,1006.06
2016-04-09T08:11:58.179Z,1006.06
2016-04-09T08:12:58.135Z,1006.06
2016-04-09T08:13:58.092Z,1006.05
2016-04-09T08:14:58.047Z,1006
2016-04-09T08:15:57.987Z,1006.04
2016-04-09T08:16:57.943Z,1006.01
2016-04-09T08:17:57.898Z,1006.02
2016-04-09T08:18:57.839Z,1006.03
2016-04-09T08:19:57.795Z,1006
2016-04-09T08:20:57.750Z,1005.99
2016-04-09T08:21:57.706Z,1006.01
2016-04-09T08:22:57.647Z,1006.02
2016-04-09T08:23:57.603Z,1006
2016-04-09T08:24:57.558Z,1006.04
2016-04-09T08:25:57.530Z,1006.01
2016-04-09T08:26:57.470Z,1005.98
2016-04-09T08:28:00.629Z,1005.98
2016-04-09T08:28:57.366Z,1006.01
2016-04-09T08:29:57.321Z,1005.97
2016-04-09T08:30:57.293Z,1006.03
2016-04-09T08:31:57.233Z,1005.96
2016-04-09T08:32:57.174Z,1005.97
2016-04-09T08:33:57.129Z,1005.97
2016-04-09T08:34:57.085Z,1005.98
2016-04-09T08:35:57.040Z,1005.96
2016-04-09T08:36:56.997Z,1005.95
2016-04-09T08:37:56.952Z,1005.94
2016-04-09T08:38:56.893Z,1005.93
2016-04-09T08:39:56.848Z,1005.9
2016-04-09T08:40:56.804Z,1005.89
2016-04-09T08:41:56.745Z,1005.87
2016-04-09T08:42:56.701Z,1005.9
2016-04-09T08:43:56.656Z,1005.91
2016-04-09T08:44:56.612Z,1005.9
2016-04-09T08:45:56.568Z,1005.82
2016-04-09T08:46:56.523Z,1005.83
2016-04-09T08:47:56.464Z,1005.88
2016-04-09T08:48:56.420Z,1005.86
2016-04-09T08:49:56.376Z,1005.85
2016-04-09T08:50:56.331Z,1005.83
2016-04-09T08:51:56.272Z,1005.83
2016-04-09T08:52:56.228Z,1005.86
2016-04-09T08:53:56.183Z,1005.82
2016-04-09T08:54:56.139Z,1005.82
2016-04-09T08:55:56.095Z,1005.79
2016-04-09T08:56:56.035Z,1005.79
2016-04-09T08:57:55.991Z,1005.78
2016-04-09T08:58:55.947Z,1005.83
2016-04-09T08:59:55.886Z,1005.81
2016-04-09T09:00:55.842Z,1005.79
2016-04-09T09:01:55.799Z,1005.8
2016-04-09T09:02:55.754Z,1005.8
2016-04-09T09:03:55.694Z,1005.82
2016-04-09T09:04:55.650Z,1005.76
2016-04-09T09:05:55.607Z,1005.78
2016-04-09T09:06:55.562Z,1005.77
2016-04-09T09:07:55.519Z,1005.76
2016-04-09T09:08:55.458Z,1005.8
2016-04-09T09:09:55.414Z,1005.79
2016-04-09T09:10:58.621Z,1005.8
2016-04-09T09:11:55.327Z,1005.75
2016-04-09T09:12:55.282Z,1005.79
2016-04-09T09:13:55.238Z,1005.77
2016-04-09T09:14:55.178Z,1005.73
2016-04-09T09:15:55.134Z,1005.74
2016-04-09T09:16:55.090Z,1005.75
2016-04-09T09:17:55.045Z,1005.76
2016-04-09T09:18:55.017Z,1005.73
2016-04-09T09:19:54.941Z,1005.75
2016-04-09T09:20:54.897Z,1005.68
2016-04-09T09:21:54.853Z,1005.73
2016-04-09T09:22:54.793Z,1005.66
2016-04-09T09:23:54.749Z,1005.7
2016-04-09T09:24:54.704Z,1005.69
2016-04-09T09:25:54.661Z,1005.65
2016-04-09T09:26:54.617Z,1005.66
2016-04-09T09:27:54.556Z,1005.62
2016-04-09T09:28:54.512Z,1005.62
2016-04-09T09:29:54.468Z,1005.66
2016-04-09T09:30:54.425Z,1005.57
2016-04-09T09:31:54.380Z,1005.61
2016-04-09T09:32:54.336Z,1005.57
2016-04-09T09:33:54.276Z,1005.58
2016-04-09T09:34:54.231Z,1005.54
2016-04-09T09:35:54.188Z,1005.56
2016-04-09T09:36:54.144Z,1005.53
2016-04-09T09:37:54.083Z,1005.54
2016-04-09T09:38:54.055Z,1005.51
2016-04-09T09:39:56.995Z,1005.53
2016-04-09T09:40:53.951Z,1005.57
2016-04-09T09:41:53.891Z,1005.56
2016-04-09T09:42:53.847Z,1005.58
2016-04-09T09:43:53.802Z,1005.57
2016-04-09T09:44:53.962Z,1005.55
2016-04-09T09:45:53.715Z,1005.51
2016-04-09T09:46:53.655Z,1005.51
2016-04-09T09:47:53.610Z,1005.49
2016-04-09T09:48:53.571Z,1005.44
2016-04-09T09:49:58.640Z,1005.42
2016-04-09T09:50:53.498Z,1005.44
2016-04-09T09:51:53.422Z,1005.44
2016-04-09T09:52:53.374Z,1005.44
2016-04-09T09:53:53.315Z,1005.42
2016-04-09T09:54:53.271Z,1005.45
2016-04-09T09:55:53.227Z,1005.46
2016-04-09T09:56:53.183Z,1005.48
2016-04-09T09:57:53.123Z,1005.37
2016-04-09T09:58:53.079Z,1005.43
2016-04-09T09:59:53.034Z,1005.4
2016-04-09T10:00:52.991Z,1005.4
2016-04-09T10:01:52.946Z,1005.36
2016-04-09T10:02:52.887Z,1005.34
2016-04-09T10:03:52.844Z,1005.37
2016-04-09T10:04:52.799Z,1005.37
2016-04-09T10:05:52.739Z,1005.35
2016-04-09T10:06:52.694Z,1005.35
2016-04-09T10:07:52.667Z,1005.31
2016-04-09T10:08:52.607Z,1005.33
2016-04-09T10:09:52.563Z,1005.32
2016-04-09T10:10:52.503Z,1005.33
2016-04-09T10:11:52.458Z,1005.32
2016-04-09T10:12:52.413Z,1005.3
2016-04-09T10:13:52.370Z,1005.32
2016-04-09T10:14:52.327Z,1005.33
2016-04-09T10:15:52.282Z,1005.29
2016-04-09T10:16:52.237Z,1005.29
2016-04-09T10:17:52.174Z,1005.32
2016-04-09T10:18:52.132Z,1005.31
2016-04-09T10:19:52.087Z,1005.27
2016-04-09T10:20:52.027Z,1005.3
2016-04-09T10:21:51.983Z,1005.26
2016-04-09T10:22:51.938Z,1005.27
2016-04-09T10:23:51.895Z,1005.23
2016-04-09T10:24:51.850Z,1005.24
2016-04-09T10:25:51.790Z,1005.22
2016-04-09T10:26:51.746Z,1005.23
2016-04-09T10:27:51.702Z,1005.22
2016-04-09T10:28:51.659Z,1005.2
2016-04-09T10:29:51.614Z,1005.22
2016-04-09T10:30:51.663Z,1005.18
2016-04-09T10:31:51.509Z,1005.21
2016-04-09T10:32:51.497Z,1005.19
2016-04-09T10:33:51.422Z,1005.18
2016-04-09T10:34:51.361Z,1005.15
2016-04-09T10:35:51.317Z,1005.19
2016-04-09T10:36:51.273Z,1005.12
2016-04-09T10:37:51.214Z,1005.15
2016-04-09T10:38:51.170Z,1005.17
2016-04-09T10:39:51.125Z,1005.17
2016-04-09T10:40:51.080Z,1005.21
2016-04-09T10:41:51.037Z,1005.17
2016-04-09T10:42:50.992Z,1005.14
2016-04-09T10:43:50.949Z,1005.17
2016-04-09T10:44:50.889Z,1005.16
2016-04-09T10:45:50.844Z,1005.16
2016-04-09T10:46:50.816Z,1005.14
2016-04-09T10:47:50.740Z,1005.15
2016-04-09T10:48:50.696Z,1005.11
2016-04-09T10:49:50.652Z,1005.14
2016-04-09T10:50:50.608Z,1005.14
2016-04-09T10:51:50.564Z,1005.07
2016-04-09T10:52:50.519Z,1005.14
2016-04-09T10:53:50.459Z,1005.07
2016-04-09T10:54:50.415Z,1005.14
2016-04-09T10:55:50.371Z,1005.09
2016-04-09T10:56:50.312Z,1005.08
2016-04-09T10:57:50.268Z,1005.04
2016-04-09T10:58:50.223Z,1005.07
2016-04-09T10:59:50.194Z,1005.02
2016-04-09T11:00:50.134Z,1005.02
2016-04-09T11:01:50.075Z,1005.04
2016-04-09T11:02:50.046Z,1005.04
2016-04-09T11:03:49.987Z,1004.98
2016-04-09T11:04:49.943Z,1005.01
2016-04-09T11:05:49.898Z,1005.04
2016-04-09T11:06:49.853Z,1005.01
2016-04-09T11:07:49.794Z,1004.95
2016-04-09T11:08:49.750Z,1004.92
2016-04-09T11:09:49.706Z,1004.9
2016-04-09T11:10:49.661Z,1004.92
2016-04-09T11:11:49.603Z,1004.95
2016-04-09T11:12:49.557Z,1004.93
2016-04-09T11:13:49.513Z,1004.91
2016-04-09T11:14:49.469Z,1004.94
2016-04-09T11:15:49.425Z,1004.87
2016-04-09T11:16:49.381Z,1004.92
2016-04-09T11:17:49.321Z,1004.85
2016-04-09T11:18:49.277Z,1004.85
2016-04-09T11:19:49.232Z,1004.84
2016-04-09T11:20:49.173Z,1004.87
2016-04-09T11:21:49.129Z,1004.93
2016-04-09T11:22:49.085Z,1004.89
2016-04-09T11:23:49.040Z,1004.9
2016-04-09T11:24:48.996Z,1004.89
2016-04-09T11:25:48.937Z,1004.88
2016-04-09T11:26:48.893Z,1004.82
2016-04-09T11:27:48.848Z,1004.8
2016-04-09T11:28:48.804Z,1004.8
2016-04-09T11:29:48.744Z,1004.78
2016-04-09T11:30:48.715Z,1004.75
2016-04-09T11:31:48.656Z,1004.79
2016-04-09T11:32:48.612Z,1004.77
2016-04-09T11:33:48.567Z,1004.78
2016-04-09T11:34:48.523Z,1004.8
2016-04-09T11:35:48.478Z,1004.78
2016-04-09T11:36:48.420Z,1004.74
2016-04-09T11:37:48.375Z,1004.72
2016-04-09T11:38:48.330Z,1004.72
2016-04-09T11:39:48.270Z,1004.71
2016-04-09T11:40:48.227Z,1004.75
2016-04-09T11:41:48.197Z,1004.7
2016-04-09T11:42:48.138Z,1004.67
2016-04-09T11:43:48.078Z,1004.63
2016-04-09T11:44:48.034Z,1004.63
2016-04-09T11:45:47.990Z,1004.66
2016-04-09T11:46:47.946Z,1004.63
2016-04-09T11:47:47.902Z,1004.66
2016-04-09T11:48:47.841Z,1004.61
2016-04-09T11:49:47.797Z,1004.65
2016-04-09T11:50:47.754Z,1004.61
2016-04-09T11:51:47.709Z,1004.57
2016-04-09T11:52:47.665Z,1004.62
2016-04-09T11:53:47.808Z,1004.58
2016-04-09T11:54:47.560Z,1004.52
2016-04-09T11:55:47.517Z,1004.51
2016-04-09T11:56:47.473Z,1004.55
2016-04-09T11:57:47.428Z,1004.52
2016-04-09T11:58:47.368Z,1004.54
2016-04-09T11:59:47.324Z,1004.54
2016-04-09T12:00:47.281Z,1004.55
2016-04-09T12:01:47.439Z,1004.58
2016-04-09T12:02:47.176Z,1004.52
2016-04-09T12:03:47.132Z,1004.52
2016-04-09T12:04:47.087Z,1004.49
2016-04-09T12:05:47.044Z,1004.47
2016-04-09T12:06:47.000Z,1004.44
2016-04-09T12:07:46.939Z,1004.42